Time;durP1;ratioP1;P1;durP2;ratioP2;P2;SDS_P1;SDS_P2;PMS_P1;PMS_P2;Temp;Humidity;BMP_temperature;BMP_pressure;BME280_temperature;BME280_humidity;BME280_pressure;Samples;Min_cycle;Max_cycle;Signal;HPM_P1;HPM_P2
2022/04/22 00:02:14;;;;;;;7.28;1.45;;;17.70;99.90;;;;;;5011064;28;20206;-73
2022/04/22 00:04:45;;;;;;;7.57;1.70;;;17.80;99.90;;;;;;5008761;28;20658;-73
2022/04/22 00:07:16;;;;;;;10.65;1.40;;;17.80;99.90;;;;;;5010316;28;20230;-73
2022/04/22 00:09:46;;;;;;;5.32;1.50;;;17.80;99.90;;;;;;5009694;28;20206;-73
2022/04/22 00:12:17;;;;;;;7.70;1.33;;;17.90;99.90;;;;;;5011818;28;20207;-73
2022/04/22 00:14:48;;;;;;;7.15;1.42;;;17.90;99.90;;;;;;5012166;28;20654;-73
2022/04/22 00:17:20;;;;;;;10.13;1.17;;;17.90;99.90;;;;;;5010502;28;20671;-73
2022/04/22 00:19:51;;;;;;;3.60;1.30;;;18.00;99.90;;;;;;5011138;28;20249;-73
2022/04/22 00:22:21;;;;;;;3.40;1.05;;;18.00;99.90;;;;;;5010058;28;20265;-73
2022/04/22 00:24:53;;;;;;;5.95;1.30;;;18.10;99.90;;;;;;5011815;28;20283;-73
2022/04/22 00:27:24;;;;;;;4.90;1.00;;;18.20;99.90;;;;;;5010026;28;20225;-74
2022/04/22 00:29:54;;;;;;;5.70;1.10;;;18.20;99.90;;;;;;5011328;28;20241;-73
2022/04/22 00:32:27;;;;;;;4.18;1.00;;;18.30;99.90;;;;;;5011026;28;20195;-73
2022/04/22 00:34:57;;;;;;;4.30;0.90;;;18.30;99.90;;;;;;5007669;28;20211;-73
2022/04/22 00:37:28;;;;;;;4.88;0.80;;;18.50;99.90;;;;;;5011284;28;20219;-73
2022/04/22 00:39:59;;;;;;;5.43;1.10;;;18.60;99.90;;;;;;5011190;28;20199;-73
2022/04/22 00:42:29;;;;;;;5.40;1.02;;;18.70;99.90;;;;;;5002421;28;20200;-73
2022/04/22 00:45:00;;;;;;;3.85;0.90;;;18.80;99.90;;;;;;5009201;28;20194;-73
2022/04/22 00:47:33;;;;;;;8.88;1.02;;;18.90;99.90;;;;;;5011795;28;20191;-72
2022/04/22 00:50:04;;;;;;;5.03;1.20;;;19.00;99.90;;;;;;5011545;28;20215;-73
2022/04/22 00:52:34;;;;;;;6.07;1.08;;;19.00;99.90;;;;;;5014729;28;20249;-73
2022/04/22 00:55:06;;;;;;;5.55;1.10;;;19.00;99.90;;;;;;5014803;28;20195;-73
2022/04/22 00:57:37;;;;;;;5.65;1.10;;;19.10;99.90;;;;;;5009287;28;20217;-73
2022/04/22 01:00:08;;;;;;;5.07;1.30;;;19.10;99.90;;;;;;5012662;28;20199;-73
2022/04/22 01:02:41;;;;;;;8.68;0.90;;;19.20;99.90;;;;;;5011703;28;20250;-73
2022/04/22 01:10:45;;;;;;;2.67;0.98;;;19.30;99.90;;;;;;5010674;28;20205;-75
2022/04/22 01:13:16;;;;;;;6.72;1.10;;;19.20;99.90;;;;;;5014971;28;20199;-78
2022/04/22 01:15:47;;;;;;;7.43;1.20;;;19.20;99.90;;;;;;5013940;28;20198;-77
2022/04/22 01:18:20;;;;;;;9.80;1.20;;;19.10;99.90;;;;;;5014842;28;20403;-77
2022/04/22 01:20:51;;;;;;;6.95;1.17;;;19.10;99.90;;;;;;5012602;28;20206;-77
2022/04/22 01:23:23;;;;;;;5.65;1.27;;;19.10;99.90;;;;;;5013879;28;20210;-76
2022/04/22 01:25:54;;;;;;;7.05;1.20;;;19.10;99.90;;;;;;5013897;28;20638;-76
2022/04/22 01:28:25;;;;;;;4.80;1.00;;;19.10;99.90;;;;;;5013722;28;20592;-76
2022/04/22 01:30:59;;;;;;;7.03;1.00;;;19.20;99.90;;;;;;5011761;28;20629;-76
2022/04/22 01:33:30;;;;;;;3.88;0.90;;;19.20;99.90;;;;;;5012073;28;20198;-76
2022/04/22 01:36:01;;;;;;;6.28;1.63;;;19.20;99.90;;;;;;5014169;28;20195;-76
2022/04/22 01:38:33;;;;;;;7.30;1.00;;;19.10;99.90;;;;;;5010291;28;20219;-76
2022/04/22 01:41:04;;;;;;;5.22;1.10;;;19.10;99.90;;;;;;5002632;28;20203;-77
2022/04/22 01:43:36;;;;;;;8.73;1.40;;;19.10;99.90;;;;;;5010009;28;20187;-76
2022/04/22 01:46:06;;;;;;;4.55;1.00;;;19.10;99.90;;;;;;5009080;28;20207;-76
2022/04/22 01:48:37;;;;;;;7.97;1.30;;;19.10;99.90;;;;;;5008672;28;20223;-76
2022/04/22 01:51:07;;;;;;;5.65;1.00;;;19.10;99.90;;;;;;5009647;28;20195;-76
2022/04/22 01:53:41;;;;;;;10.10;1.05;;;19.10;99.90;;;;;;5010705;28;20195;-76
2022/04/22 01:56:12;;;;;;;9.20;1.75;;;19.10;99.90;;;;;;5002368;28;20198;-76
2022/04/22 01:58:43;;;;;;;9.63;1.10;;;19.10;99.90;;;;;;5008787;28;20214;-75
2022/04/22 02:01:13;;;;;;;8.75;1.30;;;19.10;99.90;;;;;;5008023;28;20199;-76
2022/04/22 02:03:44;;;;;;;6.32;0.80;;;19.10;99.90;;;;;;5014473;28;20245;-77
2022/04/22 02:06:14;;;;;;;5.35;1.05;;;19.10;99.90;;;;;;5013376;28;20191;-76
2022/04/22 02:08:47;;;;;;;4.25;0.77;;;19.10;99.90;;;;;;5013847;28;20203;-76
2022/04/22 02:11:18;;;;;;;5.22;0.85;;;19.10;99.90;;;;;;5010086;28;20206;-76
2022/04/22 02:13:49;;;;;;;7.22;1.08;;;19.10;99.90;;;;;;5008881;28;20297;-77
2022/04/22 02:16:19;;;;;;;7.18;1.30;;;19.20;99.90;;;;;;5008897;28;20241;-76
2022/04/22 02:18:50;;;;;;;4.03;0.80;;;19.20;99.90;;;;;;5010724;28;20768;-75
2022/04/22 02:21:21;;;;;;;5.00;1.15;;;19.20;99.90;;;;;;5008323;28;20199;-75
2022/04/22 02:23:54;;;;;;;4.85;0.98;;;19.20;99.90;;;;;;5013028;28;20198;-75
2022/04/22 02:26:24;;;;;;;6.20;0.82;;;19.20;99.90;;;;;;5012803;28;20199;-75
2022/04/22 02:28:53;;;;;;;5.25;0.93;;;19.10;99.90;;;;;;5010855;28;20206;-75
2022/04/22 02:31:24;;;;;;;5.07;1.20;;;19.10;99.90;;;;;;5009918;28;20207;-75
2022/04/22 02:33:54;;;;;;;2.75;0.90;;;19.00;99.90;;;;;;5012814;28;20218;-75
2022/04/22 02:36:25;;;;;;;4.30;0.80;;;19.00;99.90;;;;;;5012706;28;20207;-76
2022/04/22 02:38:57;;;;;;;9.27;1.40;;;19.00;99.90;;;;;;5009320;28;20265;-75
2022/04/22 02:47:02;;;;;;;7.90;1.15;;;19.00;99.90;;;;;;5014657;28;20202;-75
2022/04/22 02:49:32;;;;;;;2.60;0.50;;;19.10;99.90;;;;;;5013042;28;20689;-75
2022/04/22 02:52:03;;;;;;;5.50;0.80;;;19.00;99.90;;;;;;5013339;28;20716;-75
2022/04/22 02:54:36;;;;;;;2.80;0.80;;;19.00;99.90;;;;;;5014164;28;20275;-75
2022/04/22 02:57:07;;;;;;;4.30;0.80;;;19.00;99.90;;;;;;5013194;28;20211;-76
2022/04/22 02:59:39;;;;;;;5.07;0.80;;;19.00;99.90;;;;;;5009497;28;20607;-75
2022/04/22 03:02:10;;;;;;;2.13;0.50;;;19.20;99.90;;;;;;5014411;28;20199;-75
2022/04/22 03:04:42;;;;;;;2.92;0.68;;;19.20;99.90;;;;;;5012494;28;20551;-75
2022/04/22 03:07:13;;;;;;;3.40;0.70;;;19.20;99.90;;;;;;5008529;28;20261;-74
2022/04/22 03:09:45;;;;;;;3.83;0.60;;;19.20;99.90;;;;;;5014174;28;20213;-76
2022/04/22 03:12:16;;;;;;;5.22;0.68;;;19.10;99.90;;;;;;5011427;28;20199;-74
2022/04/22 03:14:47;;;;;;;4.22;0.70;;;19.10;99.90;;;;;;5012658;28;20199;-75
2022/04/22 03:17:17;;;;;;;3.35;0.65;;;19.10;99.90;;;;;;5012857;28;20239;-75
2022/04/22 03:19:48;;;;;;;4.85;0.68;;;19.10;99.90;;;;;;5013759;28;20278;-75
2022/04/22 03:22:19;;;;;;;7.53;0.93;;;19.10;99.90;;;;;;5009458;28;20203;-75
2022/04/22 03:24:51;;;;;;;3.25;0.57;;;19.00;99.90;;;;;;5013787;28;20195;-75
2022/04/22 03:27:22;;;;;;;3.92;0.65;;;18.90;99.90;;;;;;5011772;28;20590;-75
2022/04/22 03:29:53;;;;;;;4.45;0.63;;;18.90;99.90;;;;;;5007122;28;20195;-75
2022/04/22 03:32:23;;;;;;;5.38;0.70;;;18.90;99.90;;;;;;5011741;28;20564;-75
2022/04/22 03:34:54;;;;;;;4.40;0.90;;;18.90;99.90;;;;;;5012616;28;20195;-75
2022/04/22 03:37:24;;;;;;;3.85;0.88;;;18.90;99.90;;;;;;5013015;28;20210;-75
2022/04/22 03:39:57;;;;;;;3.25;0.80;;;18.80;99.90;;;;;;5013470;28;20195;-75
2022/04/22 03:42:29;;;;;;;4.60;1.00;;;18.80;99.90;;;;;;5010575;28;20211;-75
2022/04/22 03:45:00;;;;;;;6.05;1.20;;;18.80;99.90;;;;;;5004210;28;20195;-75
2022/04/22 03:47:30;;;;;;;4.10;1.10;;;18.80;99.90;;;;;;5009513;28;20230;-75
2022/04/22 03:50:01;;;;;;;3.28;0.95;;;18.70;99.90;;;;;;5003050;28;20202;-75
2022/04/22 03:52:32;;;;;;;2.45;0.88;;;18.70;99.90;;;;;;5005419;28;20601;-75
2022/04/22 03:55:04;;;;;;;4.22;0.93;;;18.70;99.90;;;;;;5008919;28;20206;-75
2022/04/22 04:00:21;;;;;;;5.60;0.90;;;18.60;99.90;;;;;;5008073;28;20198;-75
2022/04/22 04:02:52;;;;;;;4.38;0.82;;;18.60;99.90;;;;;;5007517;28;20198;-75
2022/04/22 04:05:22;;;;;;;5.07;1.10;;;18.50;99.90;;;;;;5009710;28;20199;-76
2022/04/22 04:07:53;;;;;;;1.17;0.73;;;18.50;99.90;;;;;;5009745;28;20272;-75
2022/04/22 04:16:01;;;;;;;4.55;0.90;;;18.40;99.90;;;;;;5009649;28;20256;-76
2022/04/22 04:18:34;;;;;;;3.85;0.80;;;18.40;99.90;;;;;;5003071;28;20214;-75
2022/04/22 04:23:52;;;;;;;3.95;0.65;;;18.30;99.90;;;;;;5009093;28;20199;-76
2022/04/22 04:26:26;;;;;;;4.25;0.70;;;18.30;99.90;;;;;;5011870;28;20606;-76
2022/04/22 04:28:57;;;;;;;2.35;0.60;;;18.20;99.90;;;;;;5011133;28;20225;-76
2022/04/22 04:31:28;;;;;;;6.25;0.93;;;18.10;99.90;;;;;;5012229;28;20281;-76
2022/04/22 04:33:59;;;;;;;4.50;1.05;;;18.10;99.90;;;;;;5017262;28;20198;-76
2022/04/22 04:36:30;;;;;;;2.60;0.85;;;18.10;99.90;;;;;;5016594;28;20249;-76
2022/04/22 04:39:02;;;;;;;3.33;0.80;;;18.00;99.90;;;;;;4997444;28;20760;-76
2022/04/22 04:41:34;;;;;;;2.85;0.75;;;18.00;99.90;;;;;;5014240;28;20202;-76
2022/04/22 04:44:05;;;;;;;4.55;0.80;;;18.00;99.90;;;;;;5016783;28;20199;-76
2022/04/22 04:46:35;;;;;;;3.53;0.88;;;17.90;99.90;;;;;;5016258;28;20217;-76
2022/04/22 04:49:06;;;;;;;3.15;0.80;;;17.90;99.90;;;;;;5016273;28;20654;-77
2022/04/22 04:51:36;;;;;;;2.10;0.60;;;17.90;99.90;;;;;;5015341;28;20265;-75
2022/04/22 04:54:07;;;;;;;4.47;0.98;;;17.80;99.90;;;;;;5016537;28;20207;-75
2022/04/22 04:56:39;;;;;;;3.35;0.80;;;17.80;99.90;;;;;;5016441;28;20206;-76
2022/04/22 04:59:10;;;;;;;1.77;0.47;;;17.70;99.90;;;;;;5013946;28;20207;-76
2022/04/22 05:01:41;;;;;;;2.42;0.65;;;17.70;99.90;;;;;;5016433;28;20729;-76
2022/04/22 05:04:11;;;;;;;2.92;0.63;;;17.60;99.90;;;;;;5016461;28;20199;-77
2022/04/22 05:06:42;;;;;;;3.95;0.70;;;17.50;99.90;;;;;;5014568;28;20199;-77
2022/04/22 05:09:13;;;;;;;3.33;0.60;;;17.40;99.90;;;;;;5016140;28;20278;-77
2022/04/22 05:11:45;;;;;;;3.72;0.63;;;17.40;99.90;;;;;;5016436;28;20211;-77
2022/04/22 05:14:16;;;;;;;2.72;0.80;;;17.30;99.90;;;;;;5016347;28;20277;-78
2022/04/22 05:16:46;;;;;;;1.05;0.50;;;17.30;99.90;;;;;;5016006;28;20227;-77
2022/04/22 05:19:18;;;;;;;2.20;0.80;;;17.30;99.90;;;;;;5015638;28;20222;-77
2022/04/22 05:21:49;;;;;;;3.00;0.77;;;17.30;99.90;;;;;;5016457;28;20226;-77
2022/04/22 05:24:20;;;;;;;2.70;0.65;;;17.30;99.90;;;;;;5007628;28;20198;-77
2022/04/22 05:26:52;;;;;;;3.83;0.85;;;17.40;99.90;;;;;;5014832;28;20659;-77
2022/04/22 05:32:39;;;;;;;2.38;0.75;;;17.50;99.90;;;;;;4974935;28;20638;-77
2022/04/22 05:35:10;;;;;;;2.78;1.27;;;17.50;99.90;;;;;;5010661;28;20207;-77
2022/04/22 05:37:53;;;;;;;3.25;0.68;;;17.60;99.90;;;;;;5014940;28;20203;-77
2022/04/22 05:40:26;;;;;;;3.80;0.70;;;17.60;99.90;;;;;;5014038;28;20209;-77
2022/04/22 05:43:00;;;;;;;1.73;0.70;;;17.70;99.90;;;;;;5015759;28;20564;-77
2022/04/22 05:45:31;;;;;;;3.13;0.98;;;17.80;99.90;;;;;;5013732;28;20195;-77
2022/04/22 05:48:02;;;;;;;7.30;0.80;;;17.80;99.90;;;;;;5014071;28;20206;-76
2022/04/22 05:50:33;;;;;;;4.00;0.70;;;17.80;99.90;;;;;;5011374;28;20570;-77
2022/04/22 05:53:04;;;;;;;3.65;0.80;;;17.80;99.90;;;;;;5013107;28;20732;-76
2022/04/22 05:55:35;;;;;;;3.85;0.70;;;17.80;99.90;;;;;;5014309;28;20721;-76
2022/04/22 05:58:07;;;;;;;2.20;0.75;;;17.80;99.90;;;;;;5015361;28;20215;-77
2022/04/22 06:00:38;;;;;;;2.95;0.77;;;17.80;99.90;;;;;;5013719;28;20797;-77
2022/04/22 06:03:09;;;;;;;1.70;0.77;;;17.80;99.90;;;;;;5013514;28;20270;-76
2022/04/22 06:05:39;;;;;;;2.83;0.73;;;17.80;99.90;;;;;;5007085;28;20188;-76
2022/04/22 06:10:58;;;;;;;4.72;0.90;;;17.80;99.90;;;;;;5006635;28;20191;-76
2022/04/22 06:13:30;;;;;;;3.92;0.70;;;17.80;99.90;;;;;;5013618;28;20195;-76
2022/04/22 06:16:01;;;;;;;3.05;0.77;;;17.80;99.90;;;;;;5010846;28;20708;-76
2022/04/22 06:18:31;;;;;;;3.60;0.90;;;17.80;99.90;;;;;;5013259;28;20215;-76
2022/04/22 06:21:02;;;;;;;3.70;0.60;;;17.80;99.90;;;;;;5013730;28;20234;-76
2022/04/22 06:23:34;;;;;;;3.03;0.80;;;17.80;99.90;;;;;;5012167;28;20253;-76
2022/04/22 06:26:04;;;;;;;2.72;0.50;;;17.80;99.90;;;;;;5012774;28;20205;-75
2022/04/22 06:28:37;;;;;;;2.88;0.77;;;17.80;99.90;;;;;;5010502;28;20195;-76
2022/04/22 06:31:08;;;;;;;5.65;0.90;;;17.80;99.90;;;;;;5011969;28;20199;-76
2022/04/22 06:33:39;;;;;;;2.65;0.70;;;17.80;99.90;;;;;;5012488;28;20191;-76
2022/04/22 06:36:15;;;;;;;4.57;0.70;;;17.80;99.90;;;;;;5012339;28;20281;-75
2022/04/22 06:38:48;;;;;;;2.75;0.50;;;17.70;99.90;;;;;;5010619;28;20214;-76
2022/04/22 06:46:55;;;;;;;2.60;0.50;;;17.60;99.90;;;;;;5009786;28;20357;-75
2022/04/22 06:49:26;;;;;;;4.38;0.60;;;17.60;99.90;;;;;;5012688;28;20195;-75
2022/04/22 06:51:57;;;;;;;3.17;0.60;;;17.60;99.90;;;;;;5011865;28;20202;-75
2022/04/22 06:54:28;;;;;;;3.63;0.75;;;17.60;99.90;;;;;;5012252;28;20210;-75
2022/04/22 06:57:00;;;;;;;1.60;0.70;;;17.60;99.90;;;;;;5012843;28;20241;-75
2022/04/22 06:59:33;;;;;;;2.80;0.80;;;17.60;99.90;;;;;;5013183;28;20219;-75
2022/04/22 07:02:04;;;;;;;3.55;0.70;;;17.60;99.90;;;;;;5012362;28;20191;-75
2022/04/22 07:04:35;;;;;;;3.38;0.75;;;17.60;99.90;;;;;;5009928;28;20678;-75
2022/04/22 07:07:06;;;;;;;3.10;0.70;;;17.60;99.90;;;;;;5013297;28;20191;-76
2022/04/22 07:09:37;;;;;;;4.32;0.73;;;17.60;99.90;;;;;;5009842;28;20194;-75
2022/04/22 07:12:08;;;;;;;2.17;0.80;;;17.60;99.90;;;;;;5010967;28;20203;-75
2022/04/22 07:14:45;;;;;;;2.40;0.73;;;17.70;99.90;;;;;;5009894;28;20654;-75
2022/04/22 07:17:16;;;;;;;4.25;0.73;;;17.60;99.90;;;;;;5013219;28;20289;-75
2022/04/22 07:19:47;;;;;;;3.28;0.95;;;17.60;99.90;;;;;;5007783;28;20222;-75
2022/04/22 07:22:18;;;;;;;2.15;0.75;;;17.60;99.90;;;;;;5013752;28;20261;-76
2022/04/22 07:24:49;;;;;;;3.70;0.70;;;17.60;99.90;;;;;;5011729;28;20202;-77
2022/04/22 07:27:21;;;;;;;2.25;0.70;;;17.60;99.90;;;;;;5011742;28;20655;-77
2022/04/22 07:29:54;;;;;;;7.32;0.90;;;17.60;99.90;;;;;;5008977;28;20183;-77
2022/04/22 07:32:25;;;;;;;3.28;0.80;;;17.60;99.90;;;;;;5013737;28;20194;-77
2022/04/22 07:34:56;;;;;;;1.98;0.60;;;17.60;99.90;;;;;;5009650;28;20608;-77
2022/04/22 07:37:27;;;;;;;3.30;0.77;;;17.60;99.90;;;;;;5009557;28;20562;-77
2022/04/22 07:39:58;;;;;;;3.25;0.80;;;17.50;99.90;;;;;;5007266;28;20269;-76
2022/04/22 07:42:31;;;;;;;6.53;0.80;;;17.50;99.90;;;;;;5011619;28;20202;-77
2022/04/22 07:47:52;;;;;;;3.08;0.80;;;17.50;99.90;;;;;;5013780;28;20684;-77
2022/04/22 07:50:22;;;;;;;3.75;0.77;;;17.50;99.90;;;;;;5011455;28;20202;-77
2022/04/22 07:52:53;;;;;;;1.42;0.70;;;17.50;99.90;;;;;;5012187;28;20191;-77
2022/04/22 07:55:24;;;;;;;3.20;0.77;;;17.50;99.90;;;;;;5012230;28;20190;-77
2022/04/22 07:57:57;;;;;;;2.70;0.90;;;17.40;99.90;;;;;;5012651;28;20195;-76
2022/04/22 08:00:29;;;;;;;3.05;1.10;;;17.40;99.90;;;;;;5016081;28;20633;-76
2022/04/22 08:03:00;;;;;;;5.82;1.20;;;17.40;99.90;;;;;;5016315;28;20249;-76
2022/04/22 08:05:31;;;;;;;3.38;1.05;;;17.40;99.90;;;;;;5014995;28;20199;-76
2022/04/22 08:08:01;;;;;;;5.38;1.33;;;17.40;99.90;;;;;;5013614;28;20203;-76
2022/04/22 08:10:32;;;;;;;2.22;1.05;;;17.30;99.90;;;;;;5012508;28;20225;-76
2022/04/22 08:13:03;;;;;;;3.38;0.70;;;17.30;99.90;;;;;;5014299;28;20201;-76
2022/04/22 08:15:36;;;;;;;6.00;0.95;;;17.30;99.90;;;;;;5013447;28;20226;-76
2022/04/22 08:18:07;;;;;;;4.70;0.70;;;17.30;99.90;;;;;;5012790;28;20230;-75
2022/04/22 08:20:38;;;;;;;4.15;1.02;;;17.30;99.90;;;;;;5011414;28;20222;-75
2022/04/22 08:23:09;;;;;;;3.30;0.80;;;17.20;99.90;;;;;;5014167;28;20191;-75
2022/04/22 08:25:39;;;;;;;3.50;0.60;;;17.20;99.90;;;;;;5016212;28;20187;-76
2022/04/22 08:28:10;;;;;;;2.67;0.60;;;17.20;99.90;;;;;;5014518;28;20206;-76
2022/04/22 08:30:43;;;;;;;4.57;1.02;;;17.20;99.90;;;;;;5011385;28;20199;-75
2022/04/22 08:33:13;;;;;;;2.08;0.80;;;17.20;99.90;;;;;;5011648;28;20237;-75
2022/04/22 08:35:44;;;;;;;6.40;1.55;;;17.20;99.90;;;;;;5011814;28;20199;-75
2022/04/22 08:38:14;;;;;;;4.35;0.98;;;17.20;99.90;;;;;;5014082;28;20206;-75
2022/04/22 08:40:47;;;;;;;3.50;1.35;;;17.20;99.90;;;;;;5007786;28;20216;-75
2022/04/22 08:43:20;;;;;;;4.90;1.80;;;17.20;99.90;;;;;;5014089;28;20194;-75
2022/04/22 08:45:53;;;;;;;3.85;1.95;;;17.20;99.90;;;;;;5013903;28;20253;-75
2022/04/22 08:51:12;;;;;;;4.90;1.42;;;17.20;99.90;;;;;;5014257;28;20716;-75
2022/04/22 08:53:45;;;;;;;3.75;1.17;;;17.30;99.90;;;;;;5006077;28;20203;-76
2022/04/22 08:56:17;;;;;;;4.43;1.40;;;17.30;99.90;;;;;;5015796;28;20191;-75
2022/04/22 08:58:48;;;;;;;3.67;1.23;;;17.30;99.90;;;;;;5015168;28;20697;-75
2022/04/22 09:01:21;;;;;;;2.92;1.08;;;17.30;99.90;;;;;;5013938;28;20199;-75
2022/04/22 09:03:51;;;;;;;2.08;1.02;;;17.30;99.90;;;;;;5012559;28;20237;-75
2022/04/22 09:06:25;;;;;;;5.32;1.02;;;17.30;99.90;;;;;;5015858;28;20238;-76
2022/04/22 09:08:59;;;;;;;2.55;0.75;;;17.20;99.90;;;;;;5012944;28;20203;-76
2022/04/22 09:11:33;;;;;;;1.88;0.73;;;17.20;99.90;;;;;;5010017;28;20241;-76
2022/04/22 09:14:05;;;;;;;3.28;0.90;;;17.20;99.90;;;;;;5014465;28;20199;-76
2022/04/22 09:16:39;;;;;;;3.35;0.82;;;17.20;99.90;;;;;;5010753;28;20231;-76
2022/04/22 09:19:10;;;;;;;3.65;0.70;;;17.20;99.90;;;;;;5013434;28;20211;-76
2022/04/22 09:21:41;;;;;;;2.25;0.90;;;17.10;99.90;;;;;;5013388;28;20199;-77
2022/04/22 09:24:16;;;;;;;2.38;0.80;;;17.20;99.90;;;;;;5012618;28;20195;-76
2022/04/22 09:26:46;;;;;;;3.63;1.00;;;17.20;99.90;;;;;;5013441;28;20195;-76
2022/04/22 09:29:17;;;;;;;2.33;0.90;;;17.20;99.90;;;;;;5013296;28;20191;-76
2022/04/22 09:31:53;;;;;;;2.63;1.10;;;17.20;99.90;;;;;;5013046;28;20609;-76
2022/04/22 09:34:37;;;;;;;5.15;1.65;;;17.20;99.90;;;;;;5013129;28;20239;-76
2022/04/22 09:42:59;;;;;;;251.68;128.75;;;17.20;99.90;;;;;;5013894;28;20479;-76
2022/04/22 09:45:39;;;;;;;78.88;43.63;;;17.20;99.90;;;;;;5010588;28;20221;-75
2022/04/22 09:48:19;;;;;;;40.08;23.45;;;17.20;99.90;;;;;;5011498;28;20230;-76
2022/04/22 09:50:52;;;;;;;13.38;7.28;;;17.10;99.90;;;;;;5004756;28;20198;-76
2022/04/22 09:53:34;;;;;;;14.05;7.50;;;17.10;99.90;;;;;;5010538;28;20379;-76
2022/04/22 09:56:09;;;;;;;9.05;4.85;;;17.10;99.90;;;;;;5009702;28;20195;-76
2022/04/22 09:58:40;;;;;;;8.45;3.70;;;17.10;99.90;;;;;;5008623;28;20202;-76
2022/04/22 10:01:11;;;;;;;5.45;2.83;;;17.10;99.90;;;;;;5011864;28;20690;-76
2022/04/22 10:03:44;;;;;;;4.43;1.88;;;17.10;99.90;;;;;;5012299;28;20191;-76
2022/04/22 10:06:16;;;;;;;2.90;1.40;;;17.10;99.90;;;;;;5009699;28;20586;-76
2022/04/22 10:08:48;;;;;;;3.55;1.17;;;17.10;99.90;;;;;;5010342;28;20244;-76
2022/04/22 10:11:20;;;;;;;2.95;1.10;;;17.10;99.90;;;;;;5013247;28;20286;-76
2022/04/22 10:13:51;;;;;;;3.80;1.23;;;17.00;99.90;;;;;;5013405;28;20274;-76
2022/04/22 10:16:21;;;;;;;2.60;0.95;;;17.10;99.90;;;;;;5013090;28;20231;-75
2022/04/22 10:18:54;;;;;;;5.25;1.63;;;17.00;99.90;;;;;;5014185;28;20201;-76
2022/04/22 10:21:26;;;;;;;3.65;1.77;;;17.10;99.90;;;;;;5013653;28;20187;-76
2022/04/22 10:23:58;;;;;;;5.00;1.52;;;17.10;99.90;;;;;;5012060;28;20256;-77
2022/04/22 10:26:29;;;;;;;2.95;1.13;;;17.10;99.90;;;;;;5013536;28;20191;-78
2022/04/22 10:29:02;;;;;;;5.75;1.20;;;17.00;99.90;;;;;;5010188;28;20199;-78
2022/04/22 10:31:33;;;;;;;3.25;1.20;;;17.00;99.90;;;;;;5012544;28;20199;-77
2022/04/22 10:34:11;;;;;;;2.45;1.15;;;17.00;99.90;;;;;;5011502;28;20218;-78
2022/04/22 10:36:43;;;;;;;4.13;1.20;;;16.90;99.90;;;;;;5013007;28;20195;-78
2022/04/22 10:39:33;;;;;;;3.38;1.00;;;16.90;99.90;;;;;;5013198;28;20573;-77
2022/04/22 10:42:04;;;;;;;4.07;0.90;;;16.80;99.90;;;;;;5010363;28;20253;-77
2022/04/22 10:47:40;;;;;;;3.78;1.10;;;16.80;99.90;;;;;;5012750;28;20229;-77
2022/04/22 10:50:33;;;;;;;2.58;0.90;;;16.80;99.90;;;;;;5012857;28;20294;-77
2022/04/22 10:53:05;;;;;;;3.92;0.95;;;16.80;99.90;;;;;;5012406;28;20195;-77
2022/04/22 10:55:38;;;;;;;4.80;1.00;;;16.80;99.90;;;;;;5013081;28;20203;-77
2022/04/22 10:58:27;;;;;;;2.08;0.98;;;16.90;99.90;;;;;;5012086;28;20195;-77
2022/04/22 11:00:59;;;;;;;5.60;1.00;;;16.90;99.90;;;;;;5005683;28;20212;-76
2022/04/22 11:03:34;;;;;;;4.10;0.95;;;16.90;99.90;;;;;;5011874;28;20187;-77
2022/04/22 11:06:09;;;;;;;3.08;1.08;;;16.90;99.90;;;;;;5013235;28;20183;-76
2022/04/22 11:08:41;;;;;;;5.03;1.20;;;16.90;99.90;;;;;;5012763;28;20195;-76
2022/04/22 11:11:21;;;;;;;2.75;1.08;;;16.90;99.90;;;;;;5010517;28;20257;-76
2022/04/22 11:13:55;;;;;;;3.80;0.88;;;16.90;99.90;;;;;;4994704;28;20589;-76
2022/04/22 11:16:32;;;;;;;3.45;1.00;;;16.80;99.90;;;;;;5012941;28;20620;-76
2022/04/22 11:19:29;;;;;;;2.63;1.00;;;16.90;99.90;;;;;;5011384;28;21146;-76
2022/04/22 11:22:02;;;;;;;1.90;0.98;;;16.80;99.90;;;;;;5012728;28;20195;-77
2022/04/22 11:24:33;;;;;;;5.65;1.20;;;16.80;99.90;;;;;;5012210;28;20253;-77
2022/04/22 11:27:10;;;;;;;3.58;1.15;;;16.80;99.90;;;;;;5010538;28;20262;-76
2022/04/22 11:29:41;;;;;;;3.63;1.00;;;16.80;99.90;;;;;;5009230;28;20206;-77
2022/04/22 11:32:21;;;;;;;3.13;1.10;;;16.80;99.90;;;;;;5011386;28;20195;-76
2022/04/22 11:35:18;;;;;;;3.22;1.20;;;16.80;99.90;;;;;;5011676;28;20333;-76
2022/04/22 11:38:00;;;;;;;2.85;1.10;;;16.80;99.90;;;;;;5011830;28;20191;-76
2022/04/22 11:40:30;;;;;;;4.90;1.30;;;16.80;99.90;;;;;;5010210;28;20243;-77
2022/04/22 11:43:06;;;;;;;4.50;1.13;;;16.80;99.90;;;;;;5010219;28;20191;-77
2022/04/22 11:45:39;;;;;;;2.47;1.30;;;16.80;99.90;;;;;;5004777;28;20222;-77
2022/04/22 11:48:11;;;;;;;2.63;1.15;;;16.80;99.90;;;;;;5011656;28;20191;-77
2022/04/22 11:50:42;;;;;;;2.13;1.00;;;16.80;99.90;;;;;;5009780;28;20195;-77
2022/04/22 11:53:20;;;;;;;4.50;1.70;;;16.80;99.90;;;;;;5010528;28;20195;-77
2022/04/22 11:55:51;;;;;;;3.63;1.30;;;16.80;99.90;;;;;;5012546;28;20205;-77
2022/04/22 11:58:24;;;;;;;4.03;1.40;;;16.90;99.90;;;;;;5010600;28;20237;-77
2022/04/22 12:06:29;;;;;;;2.50;1.10;;;16.80;99.90;;;;;;5010866;28;20198;-77
2022/04/22 12:09:02;;;;;;;3.50;1.30;;;16.80;99.90;;;;;;5008782;28;20187;-77
2022/04/22 12:11:41;;;;;;;6.10;1.38;;;16.80;99.90;;;;;;5011993;28;20194;-76
2022/04/22 12:14:13;;;;;;;3.50;1.38;;;16.80;99.90;;;;;;5010368;28;20195;-77
2022/04/22 12:16:46;;;;;;;4.70;1.23;;;16.80;99.90;;;;;;5012799;28;20241;-77
2022/04/22 12:19:17;;;;;;;4.35;1.33;;;16.70;99.90;;;;;;5011452;28;20553;-77
2022/04/22 12:21:48;;;;;;;3.80;1.20;;;16.70;99.90;;;;;;5011215;28;20215;-77
2022/04/22 12:24:21;;;;;;;1.67;1.25;;;16.70;99.90;;;;;;4997137;28;20195;-77
2022/04/22 12:26:53;;;;;;;3.40;1.70;;;16.70;99.90;;;;;;5010642;28;20718;-77
2022/04/22 12:29:26;;;;;;;5.53;1.80;;;16.70;99.90;;;;;;5012184;28;20199;-77
2022/04/22 12:31:58;;;;;;;2.92;1.67;;;16.60;99.90;;;;;;5013170;28;20616;-77
2022/04/22 12:34:30;;;;;;;2.63;1.83;;;16.60;99.90;;;;;;5013481;28;20200;-78
2022/04/22 12:37:01;;;;;;;5.72;2.00;;;16.60;99.90;;;;;;4997489;28;20678;-77
2022/04/22 12:39:41;;;;;;;4.43;1.67;;;16.60;99.90;;;;;;5013089;28;20191;-77
2022/04/22 12:42:29;;;;;;;3.33;1.70;;;16.50;99.90;;;;;;5013264;28;20187;-77
2022/04/22 12:53:50;;;;;;;2.65;1.17;;;16.30;99.90;;;;;;5015650;28;20356;-77
2022/04/22 12:56:28;;;;;;;2.70;1.25;;;16.30;99.90;;;;;;5016710;28;20209;-78
2022/04/22 12:59:00;;;;;;;2.85;1.30;;;16.30;99.90;;;;;;5016294;28;20253;-77
2022/04/22 13:01:36;;;;;;;2.65;1.15;;;16.20;99.90;;;;;;5017096;28;20250;-78
2022/04/22 13:04:07;;;;;;;4.18;1.48;;;16.20;99.90;;;;;;5016624;28;20221;-78
2022/04/22 13:06:42;;;;;;;2.63;1.63;;;16.20;99.90;;;;;;5016304;28;20246;-78
2022/04/22 13:09:14;;;;;;;5.07;1.65;;;16.20;99.90;;;;;;5016541;28;20244;-78
2022/04/22 13:11:46;;;;;;;3.95;1.63;;;16.20;99.90;;;;;;5016779;28;20199;-78
2022/04/22 13:14:17;;;;;;;2.72;1.42;;;16.20;99.90;;;;;;5016580;28;20191;-78
2022/04/22 13:16:47;;;;;;;2.28;1.15;;;16.30;99.90;;;;;;5016238;28;20239;-78
2022/04/22 13:19:18;;;;;;;3.78;1.30;;;16.30;99.90;;;;;;5016531;28;20195;-79
2022/04/22 13:21:49;;;;;;;1.73;1.00;;;16.30;99.90;;;;;;5016066;28;20219;-79
2022/04/22 13:24:19;;;;;;;1.98;1.02;;;16.30;99.90;;;;;;5015978;28;20203;-80
2022/04/22 13:26:53;;;;;;;4.22;1.20;;;16.30;99.90;;;;;;5016137;28;20187;-80
2022/04/22 13:29:24;;;;;;;1.85;0.90;;;16.30;99.90;;;;;;5015748;28;20191;-80
2022/04/22 13:31:55;;;;;;;1.65;1.00;;;16.30;99.90;;;;;;5016163;28;20252;-79
2022/04/22 13:34:25;;;;;;;4.65;1.10;;;16.30;99.90;;;;;;5015733;28;20191;-80
2022/04/22 13:36:56;;;;;;;1.80;0.90;;;16.30;99.90;;;;;;5015377;28;20191;-80
2022/04/22 13:39:26;;;;;;;5.07;1.00;;;16.30;99.90;;;;;;5015943;28;20595;-80
2022/04/22 13:41:59;;;;;;;1.40;1.00;;;16.30;99.90;;;;;;5015898;28;20246;-80
2022/04/22 13:52:38;;;;;;;1.70;1.08;;;16.20;99.90;;;;;;4990334;28;20690;-77
2022/04/22 13:55:10;;;;;;;2.05;1.02;;;16.20;99.90;;;;;;4993140;28;20214;-78
2022/04/22 13:57:42;;;;;;;1.55;1.15;;;16.20;99.90;;;;;;4994222;28;20199;-75
2022/04/22 14:00:14;;;;;;;1.58;0.90;;;16.20;99.90;;;;;;4993154;28;20200;-77
2022/04/22 14:02:44;;;;;;;2.58;1.20;;;16.30;99.90;;;;;;4992418;28;20549;-78
2022/04/22 14:05:20;;;;;;;3.47;1.20;;;16.30;99.90;;;;;;4994941;28;20192;-77
2022/04/22 14:07:51;;;;;;;3.85;1.20;;;16.30;99.90;;;;;;4994877;28;20660;-77
2022/04/22 14:10:22;;;;;;;2.10;1.10;;;16.30;99.90;;;;;;4994802;28;20212;-75
2022/04/22 14:12:55;;;;;;;3.72;1.23;;;16.30;99.90;;;;;;4994598;28;20242;-77
2022/04/22 14:15:27;;;;;;;4.30;1.20;;;16.30;99.90;;;;;;4994448;28;20200;-85
2022/04/22 14:17:57;;;;;;;3.88;1.15;;;16.20;99.90;;;;;;4994345;28;20195;-78
2022/04/22 14:20:28;;;;;;;3.42;1.20;;;16.20;99.90;;;;;;4994758;28;20274;-77
2022/04/22 14:22:58;;;;;;;2.72;1.30;;;16.20;99.90;;;;;;4994502;28;20677;-79